createdAt,value
2022-08-11T00:00:21.645Z,81.48
2022-08-11T00:01:21.667Z,81.43
2022-08-11T00:02:21.730Z,81.92
2022-08-11T00:03:21.718Z,81.34
2022-08-11T00:04:21.733Z,81.53
2022-08-11T00:05:21.752Z,81.82
2022-08-11T00:06:21.776Z,81.63
2022-08-11T00:07:21.795Z,81.82
2022-08-11T00:08:21.818Z,81.72
2022-08-11T00:09:21.844Z,81.92
2022-08-11T00:10:21.865Z,81.72
2022-08-11T00:11:21.888Z,81.72
2022-08-11T00:12:21.905Z,81.72
2022-08-11T00:13:21.926Z,81.34
2022-08-11T00:14:21.949Z,81.43
2022-08-11T00:15:21.970Z,81.34
2022-08-11T00:16:21.992Z,81.43
2022-08-11T00:17:22.014Z,81.15
2022-08-11T00:18:22.035Z,81.24
2022-08-11T00:20:14.842Z,81.43
2022-08-11T00:20:22.079Z,80.96
2022-08-11T00:21:35.518Z,80.86
2022-08-11T00:22:22.122Z,81.24
2022-08-11T00:23:22.143Z,81.43
2022-08-11T00:24:22.168Z,81.15
2022-08-11T00:25:22.189Z,81.34
2022-08-11T00:26:22.207Z,81.34
2022-08-11T00:27:22.231Z,81.24
2022-08-11T00:28:22.251Z,81.63
2022-08-11T00:29:22.273Z,81.63
2022-08-11T00:30:22.295Z,81.72
2022-08-11T00:31:22.317Z,81.72
2022-08-11T00:32:22.338Z,82.30
2022-08-11T00:33:22.359Z,81.82
2022-08-11T00:34:22.383Z,81.92
2022-08-11T00:35:51.586Z,82.01
2022-08-11T00:36:25.444Z,81.43
2022-08-11T00:37:22.446Z,81.82
2022-08-11T00:38:22.471Z,81.92
2022-08-11T00:39:28.430Z,81.24
2022-08-11T00:40:22.510Z,81.72
2022-08-11T00:41:22.533Z,81.72
2022-08-11T00:42:22.556Z,82.30
2022-08-11T00:43:22.572Z,82.20
2022-08-11T00:44:22.598Z,82.30
2022-08-11T00:45:22.619Z,82.10
2022-08-11T00:46:22.637Z,81.68
2022-08-11T00:47:22.660Z,82.10
2022-08-11T00:48:22.682Z,82.16
2022-08-11T00:49:22.703Z,81.87
2022-08-11T00:50:22.726Z,81.97
2022-08-11T00:51:22.747Z,82.16
2022-08-11T00:52:22.769Z,82.16
2022-08-11T00:53:22.790Z,82.74
2022-08-11T00:54:22.812Z,81.97
2022-08-11T00:55:22.832Z,82.54
2022-08-11T00:56:22.856Z,82.45
2022-08-11T00:57:37.079Z,82.07
2022-08-11T00:58:22.897Z,82.64
2022-08-11T00:59:35.149Z,82.45
2022-08-11T01:00:22.946Z,82.45
2022-08-11T01:01:23.005Z,82.16
2022-08-11T01:02:22.983Z,82.74
2022-08-11T01:03:23.004Z,82.45
2022-08-11T01:04:23.023Z,82.64
2022-08-11T01:05:23.046Z,82.54
2022-08-11T01:06:23.069Z,82.93
2022-08-11T01:08:01.787Z,82.64
2022-08-11T01:08:23.111Z,82.93
2022-08-11T01:09:23.141Z,83.60
2022-08-11T01:10:23.154Z,83.31
2022-08-11T01:11:23.174Z,83.89
2022-08-11T01:12:23.198Z,83.70
2022-08-11T01:13:23.218Z,84.08
2022-08-11T01:14:33.931Z,83.51
2022-08-11T01:15:23.261Z,84.18
2022-08-11T01:16:23.284Z,83.98
2022-08-11T01:17:23.302Z,84.18
2022-08-11T01:18:23.324Z,84.08
2022-08-11T01:19:23.346Z,83.89
2022-08-11T01:20:44.725Z,84.18
2022-08-11T01:21:23.390Z,84.27
2022-08-11T01:22:23.424Z,83.98
2022-08-11T01:23:23.430Z,84.56
2022-08-11T01:24:23.454Z,84.66
2022-08-11T01:25:23.473Z,84.81
2022-08-11T01:26:23.494Z,84.66
2022-08-11T01:27:23.515Z,84.66
2022-08-11T01:28:23.537Z,84.56
2022-08-11T01:29:23.564Z,84.56
2022-08-11T01:30:23.584Z,84.56
2022-08-11T01:31:23.807Z,84.47
2022-08-11T01:32:23.631Z,84.42
2022-08-11T01:33:23.648Z,84.71
2022-08-11T01:34:23.666Z,84.42
2022-08-11T01:35:23.685Z,85.00
2022-08-11T01:36:23.708Z,84.81
2022-08-11T01:37:23.727Z,84.71
2022-08-11T01:38:23.749Z,85.38
2022-08-11T01:39:23.787Z,85.38
2022-08-11T01:40:23.790Z,85.38
2022-08-11T01:41:23.811Z,85.48
2022-08-11T01:42:23.835Z,85.28
2022-08-11T01:43:23.855Z,85.19
2022-08-11T01:44:23.877Z,85.48
2022-08-11T01:45:24.030Z,85.48
2022-08-11T01:46:23.920Z,85.77
2022-08-11T01:47:23.940Z,85.67
2022-08-11T01:48:23.962Z,85.67
2022-08-11T01:49:28.975Z,85.77
2022-08-11T01:50:24.003Z,85.86
2022-08-11T01:51:24.024Z,86.25
2022-08-11T01:52:33.613Z,85.58
2022-08-11T01:53:24.074Z,85.48
2022-08-11T01:54:24.088Z,85.67
2022-08-11T01:55:24.174Z,85.77
2022-08-11T01:56:24.127Z,86.15
2022-08-11T01:57:24.156Z,85.96
2022-08-11T01:58:29.350Z,85.86
2022-08-11T01:59:24.192Z,85.96
2022-08-11T02:00:24.218Z,85.86
2022-08-11T02:01:24.350Z,86.05
2022-08-11T02:02:24.258Z,86.30
2022-08-11T02:03:24.277Z,86.44
2022-08-11T02:04:24.300Z,86.25
2022-08-11T02:05:24.323Z,86.44
2022-08-11T02:06:24.340Z,85.92
2022-08-11T02:07:24.361Z,86.30
2022-08-11T02:08:33.203Z,85.92
2022-08-11T02:09:24.403Z,86.40
2022-08-11T02:10:26.892Z,86.49
2022-08-11T02:11:24.445Z,86.30
2022-08-11T02:12:24.467Z,86.30
2022-08-11T02:13:30.979Z,86.11
2022-08-11T02:14:24.512Z,86.78
2022-08-11T02:15:24.530Z,86.58
2022-08-11T02:16:25.153Z,86.68
2022-08-11T02:17:24.572Z,86.49
2022-08-11T02:18:24.593Z,86.68
2022-08-11T02:19:24.612Z,86.68
2022-08-11T02:20:24.637Z,87.07
2022-08-11T02:21:24.656Z,86.49
2022-08-11T02:22:24.677Z,86.68
2022-08-11T02:24:06.991Z,86.78
2022-08-11T02:24:24.720Z,86.58
2022-08-11T02:25:24.740Z,87.16
2022-08-11T02:26:24.764Z,87.35
2022-08-11T02:27:24.781Z,87.55
2022-08-11T02:28:24.802Z,87.45
2022-08-11T02:29:24.830Z,87.07
2022-08-11T02:30:24.845Z,87.45
2022-08-11T02:32:25.283Z,87.26
2022-08-11T02:32:30.704Z,87.26
2022-08-11T02:33:24.947Z,87.16
2022-08-11T02:34:24.931Z,87.07
2022-08-11T02:35:24.950Z,87.35
2022-08-11T02:36:24.974Z,87.26
2022-08-11T02:37:24.994Z,87.16
2022-08-11T02:38:25.011Z,87.84
2022-08-11T02:39:25.062Z,87.07
2022-08-11T02:40:25.055Z,87.84
2022-08-11T02:41:25.078Z,87.55
2022-08-11T02:42:35.470Z,88.22
2022-08-11T02:43:25.118Z,88.41
2022-08-11T02:44:25.136Z,87.93
2022-08-11T02:45:25.159Z,87.93
2022-08-11T02:46:25.181Z,88.12
2022-08-11T02:47:25.200Z,88.31
2022-08-11T02:48:25.222Z,88.08
2022-08-11T02:49:25.241Z,88.08
2022-08-11T02:50:25.264Z,88.02
2022-08-11T02:51:25.284Z,87.93
2022-08-11T02:52:25.303Z,88.12
2022-08-11T02:53:25.325Z,87.79
2022-08-11T02:54:25.349Z,87.98
2022-08-11T02:55:46.001Z,87.88
2022-08-11T02:56:25.390Z,88.65
2022-08-11T02:57:25.410Z,88.37
2022-08-11T02:58:26.927Z,88.46
2022-08-11T02:59:25.450Z,88.46
2022-08-11T03:00:25.480Z,88.75
2022-08-11T03:01:25.616Z,88.56
2022-08-11T03:02:25.526Z,88.75
2022-08-11T03:03:25.532Z,88.84
2022-08-11T03:04:25.553Z,89.23
2022-08-11T03:05:25.591Z,88.84
2022-08-11T03:06:25.598Z,88.75
2022-08-11T03:07:28.795Z,88.94
2022-08-11T03:08:25.636Z,88.84
2022-08-11T03:09:25.657Z,88.94
2022-08-11T03:10:25.677Z,89.13
2022-08-11T03:11:25.697Z,89.23
2022-08-11T03:12:25.717Z,88.94
2022-08-11T03:13:25.740Z,88.56
2022-08-11T03:14:25.763Z,88.84
2022-08-11T03:15:25.783Z,88.65
2022-08-11T03:16:25.853Z,88.94
2022-08-11T03:17:25.822Z,88.94
2022-08-11T03:18:25.845Z,88.94
2022-08-11T03:19:25.865Z,89.32
2022-08-11T03:20:25.884Z,89.23
2022-08-11T03:21:58.470Z,89.51
2022-08-11T03:22:25.926Z,89.23
2022-08-11T03:23:25.946Z,89.23
2022-08-11T03:24:25.968Z,89.61
2022-08-11T03:25:25.986Z,89.80
2022-08-11T03:26:26.009Z,89.71
2022-08-11T03:27:26.028Z,89.71
2022-08-11T03:28:26.059Z,89.80
2022-08-11T03:29:26.070Z,89.80
2022-08-11T03:30:26.091Z,89.86
2022-08-11T03:31:26.112Z,89.86
2022-08-11T03:32:26.131Z,89.76
2022-08-11T03:33:26.152Z,90.05
2022-08-11T03:34:26.171Z,90.72
2022-08-11T03:35:26.192Z,90.53
2022-08-11T03:36:26.214Z,90.43
2022-08-11T03:37:26.235Z,89.95
2022-08-11T03:38:30.643Z,90.43
2022-08-11T03:39:26.306Z,90.91
2022-08-11T03:40:26.294Z,90.91
2022-08-11T03:42:02.139Z,90.81
2022-08-11T03:42:26.337Z,89.95
2022-08-11T03:43:26.359Z,90.53
2022-08-11T03:44:26.377Z,90.81
2022-08-11T03:45:26.399Z,90.81
2022-08-11T03:46:26.418Z,90.72
2022-08-11T03:47:26.441Z,90.72
2022-08-11T03:48:26.459Z,90.91
2022-08-11T03:49:26.481Z,90.43
2022-08-11T03:50:26.512Z,90.62
2022-08-11T03:51:26.520Z,91.00
2022-08-11T03:52:26.544Z,91.00
2022-08-11T03:53:26.562Z,91.19
2022-08-11T03:54:26.603Z,91.49
2022-08-11T03:55:26.604Z,91.67
2022-08-11T03:56:26.622Z,91.67
2022-08-11T03:57:26.643Z,91.49
2022-08-11T03:58:26.665Z,91.67
2022-08-11T03:59:26.683Z,91.49
2022-08-11T04:00:26.706Z,91.77
2022-08-11T04:01:26.792Z,91.67
2022-08-11T04:02:26.815Z,91.77
2022-08-11T04:03:30.984Z,91.77
2022-08-11T04:04:26.788Z,91.77
2022-08-11T04:05:26.806Z,92.06
2022-08-11T04:06:26.828Z,92.15
2022-08-11T04:07:26.848Z,91.96
2022-08-11T04:08:26.867Z,91.86
2022-08-11T04:09:26.889Z,91.96
2022-08-11T04:10:26.907Z,92.06
2022-08-11T04:11:26.930Z,92.25
2022-08-11T04:12:36.694Z,92.44
2022-08-11T04:13:27.007Z,92.35
2022-08-11T04:14:26.991Z,92.44
2022-08-11T04:15:27.009Z,92.63
2022-08-11T04:16:27.583Z,92.25
2022-08-11T04:17:27.059Z,92.35
2022-08-11T04:18:27.073Z,92.35
2022-08-11T04:19:27.098Z,92.44
2022-08-11T04:20:27.112Z,92.15
2022-08-11T04:21:27.134Z,92.44
2022-08-11T04:22:27.154Z,92.44
2022-08-11T04:24:36.860Z,92.15
2022-08-11T04:24:37.853Z,92.73
2022-08-11T04:25:27.213Z,92.92
2022-08-11T04:26:27.235Z,92.92
2022-08-11T04:27:37.040Z,92.68
2022-08-11T04:28:29.147Z,93.02
2022-08-11T04:29:35.995Z,93.02
2022-08-11T04:30:27.317Z,92.73
2022-08-11T04:31:51.739Z,93.21
2022-08-11T04:32:27.357Z,93.02
2022-08-11T04:33:27.377Z,92.92
2022-08-11T04:34:27.398Z,93.21
2022-08-11T04:35:27.418Z,93.02
2022-08-11T04:36:27.442Z,93.30
2022-08-11T04:37:27.463Z,93.21
2022-08-11T04:38:27.481Z,93.30
2022-08-11T04:39:27.602Z,93.21
2022-08-11T04:40:27.528Z,93.21
2022-08-11T04:41:27.541Z,92.73
2022-08-11T04:42:31.505Z,93.40
2022-08-11T04:43:27.581Z,93.30
2022-08-11T04:44:27.603Z,93.49
2022-08-11T04:45:27.623Z,92.82
2022-08-11T04:46:27.645Z,92.82
2022-08-11T04:47:27.662Z,92.73
2022-08-11T04:48:27.688Z,92.63
2022-08-11T04:49:33.839Z,93.21
2022-08-11T04:50:27.724Z,93.02
2022-08-11T04:51:27.753Z,92.73
2022-08-11T04:52:36.078Z,92.82
2022-08-11T04:53:27.788Z,92.92
2022-08-11T04:54:28.836Z,93.02
2022-08-11T04:55:27.827Z,93.02
2022-08-11T04:56:27.851Z,93.21
2022-08-11T04:57:27.869Z,93.21
2022-08-11T04:58:30.103Z,93.30
2022-08-11T04:59:27.919Z,93.21
2022-08-11T05:00:27.938Z,93.78
2022-08-11T05:01:28.006Z,93.49
2022-08-11T05:02:28.073Z,93.49
2022-08-11T05:03:27.992Z,93.69
2022-08-11T05:04:28.012Z,93.11
2022-08-11T05:05:28.034Z,93.11
2022-08-11T05:06:28.060Z,93.21
2022-08-11T05:07:28.080Z,93.40
2022-08-11T05:08:28.093Z,93.78
2022-08-11T05:09:28.115Z,93.49
2022-08-11T05:10:28.139Z,93.59
2022-08-11T05:11:28.158Z,93.49
2022-08-11T05:12:28.198Z,93.69
2022-08-11T05:13:28.201Z,93.69
2022-08-11T05:14:28.220Z,93.21
2022-08-11T05:15:28.240Z,93.11
2022-08-11T05:16:29.214Z,93.44
2022-08-11T05:17:28.282Z,93.26
2022-08-11T05:18:28.304Z,93.44
2022-08-11T05:19:28.322Z,93.63
2022-08-11T05:20:28.341Z,93.26
2022-08-11T05:21:28.365Z,93.35
2022-08-11T05:22:28.448Z,93.26
2022-08-11T05:23:28.406Z,92.77
2022-08-11T05:24:28.426Z,93.44
2022-08-11T05:26:44.735Z,93.16
2022-08-11T05:26:47.077Z,93.26
2022-08-11T05:27:28.492Z,93.44
2022-08-11T05:28:28.509Z,93.54
2022-08-11T05:29:28.531Z,92.97
2022-08-11T05:30:28.555Z,93.35
2022-08-11T05:31:28.572Z,93.93
2022-08-11T05:32:28.629Z,93.73
2022-08-11T05:33:28.615Z,93.54
2022-08-11T05:34:28.635Z,93.59
2022-08-11T05:36:00.734Z,93.49
2022-08-11T05:36:28.677Z,93.68
2022-08-11T05:37:28.697Z,93.68
2022-08-11T05:38:28.721Z,93.49
2022-08-11T05:39:33.574Z,93.40
2022-08-11T05:40:28.762Z,93.49
2022-08-11T05:41:28.783Z,93.49
2022-08-11T05:42:30.136Z,93.30
2022-08-11T05:43:28.824Z,93.49
2022-08-11T05:44:28.856Z,92.82
2022-08-11T05:45:28.870Z,92.63
2022-08-11T05:46:28.888Z,92.82
2022-08-11T05:47:28.910Z,92.72
2022-08-11T05:48:28.930Z,92.24
2022-08-11T05:49:28.948Z,92.05
2022-08-11T05:50:32.732Z,91.96
2022-08-11T05:51:30.362Z,92.29
2022-08-11T05:52:31.828Z,91.72
2022-08-11T05:53:29.036Z,91.91
2022-08-11T05:54:29.725Z,91.81
2022-08-11T05:55:29.077Z,91.72
2022-08-11T05:56:29.100Z,91.91
2022-08-11T05:57:48.476Z,91.72
2022-08-11T05:58:29.143Z,91.62
2022-08-11T05:59:29.162Z,91.81
2022-08-11T06:00:29.185Z,91.24
2022-08-11T06:01:29.250Z,91.33
2022-08-11T06:02:29.281Z,91.05
2022-08-11T06:03:29.251Z,91.47
2022-08-11T06:04:29.272Z,91.57
2022-08-11T06:05:29.293Z,91.09
2022-08-11T06:06:29.368Z,90.99
2022-08-11T06:07:29.333Z,90.22
2022-08-11T06:08:29.360Z,90.22
2022-08-11T06:09:29.384Z,90.22
2022-08-11T06:10:29.406Z,90.32
2022-08-11T06:11:43.978Z,90.42
2022-08-11T06:12:29.450Z,90.32
2022-08-11T06:13:29.468Z,89.84
2022-08-11T06:14:29.486Z,89.98
2022-08-11T06:15:29.506Z,89.60
2022-08-11T06:16:30.032Z,89.12
2022-08-11T06:17:38.408Z,89.22
2022-08-11T06:18:29.575Z,89.40
2022-08-11T06:19:29.594Z,89.40
2022-08-11T06:20:29.617Z,89.22
2022-08-11T06:21:29.643Z,88.73
2022-08-11T06:22:29.672Z,88.83
2022-08-11T06:23:29.683Z,88.59
2022-08-11T06:24:29.705Z,88.78
2022-08-11T06:25:29.728Z,88.97
2022-08-11T06:26:29.752Z,89.07
2022-08-11T06:27:29.772Z,88.68
2022-08-11T06:28:29.793Z,88.97
2022-08-11T06:29:38.127Z,88.97
2022-08-11T06:30:29.838Z,88.20
2022-08-11T06:31:29.859Z,88.06
2022-08-11T06:32:29.884Z,88.06
2022-08-11T06:33:29.905Z,87.90
2022-08-11T06:34:29.928Z,87.90
2022-08-11T06:35:29.947Z,87.56
2022-08-11T06:36:29.971Z,87.27
2022-08-11T06:37:34.386Z,86.88
2022-08-11T06:38:30.021Z,85.63
2022-08-11T06:39:30.086Z,85.14
2022-08-11T06:40:30.069Z,84.42
2022-08-11T06:41:30.090Z,84.27
2022-08-11T06:42:30.114Z,83.59
2022-08-11T06:43:30.139Z,83.05
2022-08-11T06:44:30.161Z,82.18
2022-08-11T06:45:30.188Z,82.03
2022-08-11T06:46:30.213Z,81.55
2022-08-11T06:47:30.237Z,80.33
2022-08-11T06:48:30.261Z,79.12
2022-08-11T06:49:30.288Z,78.34
2022-08-11T06:50:30.313Z,77.80
2022-08-11T06:51:32.430Z,77.65
2022-08-11T06:52:45.122Z,76.59
2022-08-11T06:53:30.387Z,75.75
2022-08-11T06:54:30.414Z,74.40
2022-08-11T06:55:55.847Z,74.15
2022-08-11T06:56:30.466Z,73.66
2022-08-11T06:57:31.195Z,73.31
2022-08-11T06:58:30.519Z,72.53
2022-08-11T06:59:30.543Z,71.99
2022-08-11T07:00:30.583Z,71.70
2022-08-11T07:01:30.645Z,70.37
2022-08-11T07:02:31.431Z,69.79
2022-08-11T07:03:30.651Z,69.73
2022-08-11T07:04:30.679Z,68.37
2022-08-11T07:05:30.705Z,67.99
2022-08-11T07:06:35.989Z,67.73
2022-08-11T07:07:30.759Z,67.96
2022-08-11T07:08:34.734Z,67.18
2022-08-11T07:09:30.819Z,66.79
2022-08-11T07:10:30.842Z,66.72
2022-08-11T07:11:30.870Z,66.34
2022-08-11T07:12:30.898Z,65.89
2022-08-11T07:13:44.245Z,65.11
2022-08-11T07:14:35.022Z,65.04
2022-08-11T07:16:11.243Z,64.65
2022-08-11T07:16:31.112Z,64.17
2022-08-11T07:17:31.039Z,64.78
2022-08-11T07:18:31.069Z,62.84
2022-08-11T07:19:31.096Z,62.84
2022-08-11T07:20:31.124Z,62.87
2022-08-11T07:22:01.393Z,62.77
2022-08-11T07:22:31.240Z,62.57
2022-08-11T07:23:31.209Z,61.60
2022-08-11T07:24:58.837Z,60.92
2022-08-11T07:25:31.267Z,60.24
2022-08-11T07:26:31.301Z,59.85
2022-08-11T07:27:35.047Z,59.88
2022-08-11T07:28:31.360Z,60.56
2022-08-11T07:29:31.385Z,60.75
2022-08-11T07:30:31.422Z,60.98
2022-08-11T07:31:31.446Z,60.88
2022-08-11T07:32:31.472Z,60.39
2022-08-11T07:34:08.409Z,60.33
2022-08-11T07:34:31.537Z,60.33
2022-08-11T07:35:31.557Z,59.06
2022-08-11T07:36:31.589Z,59.94
2022-08-11T07:37:31.618Z,58.67
2022-08-11T07:38:31.650Z,58.48
2022-08-11T07:39:31.767Z,58.50
2022-08-11T07:40:31.705Z,58.99
2022-08-11T07:41:31.736Z,59.28
2022-08-11T07:42:31.765Z,58.50
2022-08-11T07:43:31.795Z,58.73
2022-08-11T07:44:35.107Z,59.02
2022-08-11T07:45:31.854Z,58.63
2022-08-11T07:46:31.885Z,57.95
2022-08-11T07:47:31.916Z,57.65
2022-08-11T07:48:31.945Z,57.59
2022-08-11T07:49:31.975Z,57.29
2022-08-11T07:50:32.014Z,57.00
2022-08-11T07:51:32.038Z,57.59
2022-08-11T07:52:32.072Z,57.49
2022-08-11T07:53:32.100Z,56.93
2022-08-11T07:54:33.378Z,55.86
2022-08-11T07:55:50.857Z,55.66
2022-08-11T07:56:32.195Z,56.25
2022-08-11T07:57:54.064Z,56.45
2022-08-11T07:58:35.480Z,55.86
2022-08-11T08:00:00.936Z,55.27
2022-08-11T08:00:32.317Z,55.49
2022-08-11T08:01:32.383Z,55.20
2022-08-11T08:02:32.402Z,55.49
2022-08-11T08:03:32.417Z,55.59
2022-08-11T08:04:32.441Z,55.59
2022-08-11T08:05:32.467Z,55.49
2022-08-11T08:06:35.995Z,55.59
2022-08-11T08:07:32.531Z,55.49
2022-08-11T08:08:32.567Z,55.32
2022-08-11T08:09:32.598Z,55.13
2022-08-11T08:10:32.630Z,54.44
2022-08-11T08:11:32.657Z,54.64
2022-08-11T08:12:32.731Z,55.32
2022-08-11T08:13:32.724Z,55.91
2022-08-11T08:14:32.756Z,56.10
2022-08-11T08:15:32.787Z,55.62
2022-08-11T08:16:33.372Z,55.52
2022-08-11T08:17:32.852Z,55.52
2022-08-11T08:18:32.883Z,54.54
2022-08-11T08:19:32.924Z,54.64
2022-08-11T08:20:32.950Z,53.25
2022-08-11T08:21:32.979Z,54.32
2022-08-11T08:22:38.487Z,53.64
2022-08-11T08:23:33.748Z,53.71
2022-08-11T08:24:33.073Z,54.00
2022-08-11T08:25:33.105Z,54.49
2022-08-11T08:26:33.136Z,54.36
2022-08-11T08:27:33.165Z,54.36
2022-08-11T08:28:33.198Z,54.44
2022-08-11T08:29:33.226Z,54.63
2022-08-11T08:30:33.262Z,55.41
2022-08-11T08:31:33.290Z,56.00
2022-08-11T08:32:33.347Z,55.77
2022-08-11T08:33:33.358Z,55.65
2022-08-11T08:34:33.920Z,55.94
2022-08-11T08:35:33.405Z,55.94
2022-08-11T08:36:33.439Z,56.04
2022-08-11T08:37:45.506Z,55.85
2022-08-11T08:38:33.491Z,56.21
2022-08-11T08:39:33.626Z,57.37
2022-08-11T08:40:33.550Z,58.45
2022-08-11T08:41:33.581Z,58.61
2022-08-11T08:42:33.691Z,58.13
2022-08-11T08:43:47.600Z,59.07
2022-08-11T08:44:39.138Z,58.49
2022-08-11T08:45:33.689Z,58.20
2022-08-11T08:46:33.722Z,57.51
2022-08-11T08:47:42.189Z,57.12
2022-08-11T08:48:33.777Z,56.84
2022-08-11T08:49:33.802Z,56.81
2022-08-11T08:50:33.832Z,57.39
2022-08-11T08:51:58.611Z,58.17
2022-08-11T08:52:37.273Z,58.07
2022-08-11T08:53:33.917Z,58.07
2022-08-11T08:54:33.968Z,57.87
2022-08-11T08:55:33.976Z,57.78
2022-08-11T08:56:33.999Z,58.23
2022-08-11T08:57:39.046Z,58.23
2022-08-11T08:58:34.056Z,59.01
2022-08-11T08:59:47.891Z,58.82
2022-08-11T09:00:34.105Z,59.01
2022-08-11T09:01:34.221Z,59.01
2022-08-11T09:02:35.114Z,58.04
2022-08-11T09:04:02.905Z,58.14
2022-08-11T09:04:34.216Z,58.43
2022-08-11T09:05:34.251Z,58.14
2022-08-11T09:06:34.269Z,59.21
2022-08-11T09:07:38.845Z,58.82
2022-08-11T09:08:34.322Z,59.11
2022-08-11T09:09:34.349Z,59.11
2022-08-11T09:10:34.377Z,59.89
2022-08-11T09:11:34.405Z,59.57
2022-08-11T09:12:36.547Z,57.62
2022-08-11T09:13:34.469Z,57.14
2022-08-11T09:14:34.486Z,57.23
2022-08-11T09:15:34.511Z,57.23
2022-08-11T09:16:35.088Z,57.53
2022-08-11T09:17:34.564Z,58.40
2022-08-11T09:18:34.592Z,58.23
2022-08-11T09:19:34.619Z,58.50
2022-08-11T09:20:34.644Z,58.79
2022-08-11T09:21:44.557Z,59.08
2022-08-11T09:22:34.701Z,58.69
2022-08-11T09:24:34.754Z,58.40
2022-08-11T09:25:34.778Z,58.33
2022-08-11T09:26:34.808Z,58.33
2022-08-11T09:27:34.835Z,58.04
2022-08-11T09:28:34.879Z,57.75
2022-08-11T09:29:34.895Z,57.46
2022-08-11T09:30:34.929Z,57.36
2022-08-11T09:31:39.600Z,57.36
2022-08-11T09:32:34.969Z,57.46
2022-08-11T09:33:34.996Z,58.14
2022-08-11T09:34:35.022Z,58.53
2022-08-11T09:35:35.048Z,58.14
2022-08-11T09:36:35.077Z,58.17
2022-08-11T09:37:54.501Z,58.62
2022-08-11T09:38:35.128Z,57.68
2022-08-11T09:39:35.192Z,58.23
2022-08-11T09:40:35.183Z,59.99
2022-08-11T09:42:01.814Z,60.02
2022-08-11T09:42:35.235Z,60.60
2022-08-11T09:43:35.275Z,61.18
2022-08-11T09:44:35.287Z,60.11
2022-08-11T09:45:39.930Z,60.70
2022-08-11T09:46:35.343Z,60.50
2022-08-11T09:47:35.370Z,60.99
2022-08-11T09:48:35.397Z,60.89
2022-08-11T09:49:35.425Z,59.14
2022-08-11T09:50:35.451Z,57.29
2022-08-11T09:51:35.481Z,56.22
2022-08-11T09:52:35.504Z,56.22
2022-08-11T09:53:40.740Z,55.66
2022-08-11T09:54:35.559Z,55.18
2022-08-11T09:55:35.585Z,55.27
2022-08-11T09:56:35.612Z,55.27
2022-08-11T09:57:35.641Z,56.05
2022-08-11T09:58:42.469Z,58.78
2022-08-11T09:59:35.695Z,58.00
2022-08-11T10:00:35.727Z,57.81
2022-08-11T10:01:35.801Z,57.22
2022-08-11T10:02:35.778Z,55.96
2022-08-11T10:03:40.167Z,55.66
2022-08-11T10:04:35.834Z,55.30
2022-08-11T10:05:35.862Z,55.30
2022-08-11T10:06:35.891Z,54.82
2022-08-11T10:07:35.918Z,55.52
2022-08-11T10:08:35.948Z,56.21
2022-08-11T10:09:35.973Z,55.33
2022-08-11T10:10:36.005Z,54.65
2022-08-11T10:11:36.034Z,53.80
2022-08-11T10:12:36.065Z,53.21
2022-08-11T10:14:32.080Z,53.89
2022-08-11T10:14:36.501Z,55.29
2022-08-11T10:15:36.157Z,55.19
2022-08-11T10:16:36.234Z,53.44
2022-08-11T10:17:36.215Z,52.29
2022-08-11T10:18:36.247Z,52.09
2022-08-11T10:19:36.277Z,51.92
2022-08-11T10:20:36.305Z,52.25
2022-08-11T10:21:36.338Z,51.37
2022-08-11T10:22:36.370Z,50.29
2022-08-11T10:23:36.402Z,50.29
2022-08-11T10:24:36.435Z,50.49
2022-08-11T10:25:36.464Z,51.00
2022-08-11T10:26:36.497Z,51.10
2022-08-11T10:28:17.080Z,51.12
2022-08-11T10:28:50.123Z,51.44
2022-08-11T10:29:37.535Z,50.39
2022-08-11T10:30:36.629Z,49.90
2022-08-11T10:31:51.076Z,50.12
2022-08-11T10:32:36.696Z,49.36
2022-08-11T10:33:41.781Z,48.50
2022-08-11T10:34:36.764Z,47.91
2022-08-11T10:35:36.799Z,48.13
2022-08-11T10:36:36.834Z,48.74
2022-08-11T10:38:08.492Z,47.69
2022-08-11T10:38:36.907Z,48.38
2022-08-11T10:39:36.952Z,47.03
2022-08-11T10:40:36.975Z,45.97
2022-08-11T10:41:37.011Z,45.30
2022-08-11T10:42:57.321Z,43.55
2022-08-11T10:44:02.814Z,43.55
2022-08-11T10:44:37.121Z,44.15
2022-08-11T10:45:37.160Z,44.54
2022-08-11T10:46:37.203Z,44.36
2022-08-11T10:47:37.282Z,44.48
2022-08-11T10:48:37.288Z,44.40
2022-08-11T10:49:37.332Z,45.00
2022-08-11T10:50:37.349Z,44.62
2022-08-11T10:51:51.106Z,44.33
2022-08-11T10:52:37.533Z,45.04
2022-08-11T10:53:37.460Z,42.77
2022-08-11T10:54:37.497Z,41.51
2022-08-11T10:55:37.534Z,41.51
2022-08-11T10:56:37.573Z,41.14
2022-08-11T10:57:37.629Z,41.53
2022-08-11T10:58:37.651Z,43.01
2022-08-11T10:59:37.688Z,43.23
2022-08-11T11:00:37.727Z,42.24
2022-08-11T11:01:37.817Z,41.85
2022-08-11T11:02:37.805Z,40.41
2022-08-11T11:03:37.843Z,40.88
2022-08-11T11:04:37.884Z,40.50
2022-08-11T11:05:37.929Z,39.72
2022-08-11T11:06:37.961Z,39.81
2022-08-11T11:07:41.432Z,40.92
2022-08-11T11:08:38.054Z,39.83
2022-08-11T11:09:38.079Z,40.53
2022-08-11T11:10:38.119Z,39.75
2022-08-11T11:11:38.160Z,39.65
2022-08-11T11:12:38.388Z,39.97
2022-08-11T11:13:38.237Z,39.48
2022-08-11T11:14:46.114Z,39.99
2022-08-11T11:15:38.313Z,40.11
2022-08-11T11:16:38.355Z,39.73
2022-08-11T11:17:38.393Z,39.23
2022-08-11T11:18:38.433Z,39.93
2022-08-11T11:19:38.471Z,39.14
2022-08-11T11:20:40.763Z,39.23
2022-08-11T11:21:38.558Z,39.06
2022-08-11T11:22:38.700Z,38.85
2022-08-11T11:23:38.630Z,37.79
2022-08-11T11:24:38.670Z,37.70
2022-08-11T11:25:38.710Z,37.70
2022-08-11T11:26:38.751Z,37.82
2022-08-11T11:27:46.357Z,37.52
2022-08-11T11:28:38.831Z,37.03
2022-08-11T11:29:38.870Z,36.13
2022-08-11T11:30:38.914Z,36.43
2022-08-11T11:31:38.949Z,36.04
2022-08-11T11:32:39.120Z,36.25
2022-08-11T11:34:06.161Z,36.45
2022-08-11T11:34:47.874Z,36.35
2022-08-11T11:35:39.109Z,35.75
2022-08-11T11:36:39.149Z,35.66
2022-08-11T11:37:39.208Z,36.05
2022-08-11T11:38:39.232Z,36.17
2022-08-11T11:39:39.337Z,36.47
2022-08-11T11:40:39.309Z,36.36
2022-08-11T11:41:39.350Z,36.57
2022-08-11T11:42:39.523Z,36.08
2022-08-11T11:43:39.430Z,35.77
2022-08-11T11:44:39.470Z,35.59
2022-08-11T11:45:39.510Z,35.91
2022-08-11T11:46:39.552Z,35.69
2022-08-11T11:47:39.590Z,36.29
2022-08-11T11:48:39.631Z,36.87
2022-08-11T11:49:39.673Z,36.58
2022-08-11T11:50:39.716Z,37.28
2022-08-11T11:51:39.751Z,36.29
2022-08-11T11:52:39.940Z,35.79
2022-08-11T11:53:39.832Z,35.79
2022-08-11T11:54:39.872Z,36.29
2022-08-11T11:55:39.913Z,37.20
2022-08-11T11:56:39.955Z,37.00
2022-08-11T11:57:40.183Z,36.90
2022-08-11T11:58:40.035Z,36.92
2022-08-11T11:59:40.079Z,36.52
2022-08-11T12:00:43.306Z,36.14
2022-08-11T12:01:40.155Z,36.04
2022-08-11T12:02:40.196Z,35.26
2022-08-11T12:03:40.307Z,35.16
2022-08-11T12:04:40.278Z,35.08
2022-08-11T12:05:40.318Z,34.78
2022-08-11T12:06:40.362Z,34.59
2022-08-11T12:07:40.519Z,34.38
2022-08-11T12:08:40.442Z,34.68
2022-08-11T12:09:40.482Z,34.69
2022-08-11T12:10:40.521Z,34.69
2022-08-11T12:11:40.563Z,34.58
2022-08-11T12:12:40.604Z,34.59
2022-08-11T12:13:40.648Z,35.28
2022-08-11T12:14:40.709Z,35.17
2022-08-11T12:16:31.969Z,34.56
2022-08-11T12:16:41.322Z,34.66
2022-08-11T12:17:40.916Z,34.64
2022-08-11T12:18:40.849Z,34.64
2022-08-11T12:19:40.887Z,34.92
2022-08-11T12:20:40.931Z,35.22
2022-08-11T12:21:40.971Z,34.83
2022-08-11T12:22:41.012Z,35.21
2022-08-11T12:23:41.055Z,36.02
2022-08-11T12:24:41.124Z,36.60
2022-08-11T12:25:41.138Z,36.70
2022-08-11T12:26:41.176Z,36.19
2022-08-11T12:27:41.329Z,37.06
2022-08-11T12:28:41.254Z,37.06
2022-08-11T12:29:43.971Z,36.75
2022-08-11T12:31:41.375Z,37.60
2022-08-11T12:32:41.639Z,37.21
2022-08-11T12:33:41.454Z,36.60
2022-08-11T12:34:41.491Z,36.28
2022-08-11T12:35:41.529Z,36.38
2022-08-11T12:36:41.568Z,36.98
2022-08-11T12:37:41.692Z,36.68
2022-08-11T12:38:41.645Z,36.38
2022-08-11T12:40:16.552Z,36.20
2022-08-11T12:41:13.849Z,36.00
2022-08-11T12:41:41.843Z,35.90
2022-08-11T12:42:41.798Z,36.20
2022-08-11T12:43:41.836Z,36.40
2022-08-11T12:44:41.875Z,36.99
2022-08-11T12:45:41.916Z,36.79
2022-08-11T12:46:41.954Z,36.41
2022-08-11T12:47:41.989Z,35.60
2022-08-11T12:48:58.638Z,35.90
2022-08-11T12:49:45.337Z,34.81
2022-08-11T12:50:42.107Z,35.01
2022-08-11T12:52:00.774Z,34.89
2022-08-11T12:52:42.183Z,35.49
2022-08-11T12:53:42.226Z,35.78
2022-08-11T12:54:42.259Z,35.69